Time;durP1;ratioP1;P1;durP2;ratioP2;P2;SDS_P1;SDS_P2;PMS_P1;PMS_P2;Temp;Humidity;BMP_temperature;BMP_pressure;BME280_temperature;BME280_humidity;BME280_pressure;Samples;Min_cycle;Max_cycle;Signal;HPM_P1;HPM_P2
2022/06/24 00:00:15;;;;;;;0.10;0.10;;;;;;;20.46;54.30;99713.38;7355840;19;20018;-63
2022/06/24 00:02:47;;;;;;;0.03;0.03;;;;;;;20.44;53.57;99703.84;7359746;19;20021;-63
2022/06/24 00:05:13;;;;;;;0.10;0.10;;;;;;;20.36;54.56;99695.63;7359807;19;20094;-61
2022/06/24 00:07:49;;;;;;;0.03;0.03;;;;;;;20.36;53.97;99696.47;7360159;19;20545;-63
2022/06/24 00:10:19;;;;;;;0.00;0.00;;;;;;;20.29;54.55;99700.59;7360909;19;20033;-63
2022/06/24 00:12:46;;;;;;;0.00;0.00;;;;;;;20.25;54.57;99699.13;7360730;19;20007;-63
2022/06/24 00:15:12;;;;;;;0.00;0.00;;;;;;;20.21;54.61;99692.38;7362840;19;20100;-62
2022/06/24 00:17:37;;;;;;;0.00;0.00;;;;;;;20.17;55.41;99693.59;7360818;19;20093;-63
2022/06/24 00:20:06;;;;;;;0.00;0.00;;;;;;;20.13;55.61;99689.50;7362696;19;20117;-63
2022/06/24 00:22:39;;;;;;;0.05;0.05;;;;;;;20.07;56.26;99688.19;7362289;19;20031;-63
2022/06/24 00:25:13;;;;;;;0.10;0.10;;;;;;;20.02;54.97;99689.47;7359492;19;20034;-63
2022/06/24 00:27:40;;;;;;;0.00;0.00;;;;;;;19.93;55.42;99689.25;7358155;19;20024;-63
2022/06/24 00:30:10;;;;;;;0.00;0.00;;;;;;;19.87;55.85;99695.03;7360275;19;20098;-62
2022/06/24 00:32:36;;;;;;;0.00;0.00;;;;;;;19.79;56.39;99692.13;7359230;19;20006;-63
2022/06/24 00:35:15;;;;;;;0.08;0.08;;;;;;;19.75;55.20;99684.53;7359960;19;20010;-63
2022/06/24 00:37:42;;;;;;;0.00;0.00;;;;;;;19.66;56.56;99683.41;7358905;19;20006;-62
2022/06/24 00:40:11;;;;;;;0.00;0.00;;;;;;;19.60;55.69;99687.38;7364154;19;20018;-63
2022/06/24 00:42:47;;;;;;;0.00;0.00;;;;;;;19.54;55.19;99679.03;7366953;19;20526;-63
2022/06/24 00:45:18;;;;;;;0.10;0.10;;;;;;;19.47;55.92;99691.91;7368494;19;20038;-63
2022/06/24 00:47:47;;;;;;;0.00;0.00;;;;;;;19.40;55.90;99683.56;7368371;19;20009;-63
2022/06/24 00:50:23;;;;;;;0.00;0.00;;;;;;;19.35;55.30;99688.38;7370128;19;20007;-63
2022/06/24 00:52:52;;;;;;;0.00;0.00;;;;;;;19.28;56.20;99679.22;7367609;19;20010;-63
2022/06/24 00:55:20;;;;;;;0.03;0.03;;;;;;;19.23;56.57;99681.34;7360949;19;20110;-63
2022/06/24 00:57:45;;;;;;;0.00;0.00;;;;;;;19.18;56.62;99672.91;7360288;19;20011;-63
2022/06/24 01:00:15;;;;;;;0.10;0.10;;;;;;;19.15;55.88;99665.19;7360549;19;20015;-63
2022/06/24 01:02:42;;;;;;;0.00;0.00;;;;;;;19.09;56.31;99673.59;7357684;19;20036;-63
2022/06/24 01:05:09;;;;;;;0.00;0.00;;;;;;;19.04;56.55;99667.81;7359244;19;20011;-63
2022/06/24 01:07:39;;;;;;;0.00;0.00;;;;;;;18.99;56.15;99675.22;7359821;19;20064;-63
2022/06/24 01:10:07;;;;;;;0.00;0.00;;;;;;;18.89;57.19;99673.25;7360206;19;20033;-63
2022/06/24 01:12:32;;;;;;;;;;;;;;;18.83;54.19;99668.44;7362216;19;20894;-62
2022/06/24 01:14:58;;;;;;;0.00;0.00;;;;;;;18.76;56.90;99664.56;7357698;19;20635;-62
2022/06/24 01:17:23;;;;;;;0.00;0.00;;;;;;;18.71;56.98;99661.41;7359615;19;20053;-63
2022/06/24 01:19:49;;;;;;;0.00;0.00;;;;;;;18.62;57.27;99652.28;7363590;19;20010;-62
2022/06/24 01:22:25;;;;;;;0.00;0.00;;;;;;;18.60;56.07;99653.34;7361784;19;20428;-63
2022/06/24 01:24:52;;;;;;;0.00;0.00;;;;;;;18.55;56.70;99655.47;7362543;19;20551;-63
2022/06/24 01:27:18;;;;;;;0.00;0.00;;;;;;;18.50;57.59;99647.91;7361061;19;20347;-59
2022/06/24 01:29:44;;;;;;;0.00;0.00;;;;;;;18.35;57.46;99633.16;7362262;19;20152;-63
2022/06/24 01:32:09;;;;;;;0.10;0.10;;;;;;;18.28;57.64;99632.72;7360883;19;20458;-63
2022/06/24 01:34:35;;;;;;;0.00;0.00;;;;;;;18.33;58.17;99648.25;7360285;19;20021;-63
2022/06/24 01:37:01;;;;;;;0.00;0.00;;;;;;;18.26;58.10;99645.22;7361025;19;20025;-63
2022/06/24 01:39:27;;;;;;;0.10;0.10;;;;;;;18.21;57.77;99631.50;7363640;19;20483;-63
2022/06/24 01:41:52;;;;;;;0.00;0.00;;;;;;;18.18;58.25;99631.69;7360777;19;20018;-62
2022/06/24 01:44:19;;;;;;;0.00;0.00;;;;;;;18.16;57.86;99623.03;7361223;19;20123;-63
2022/06/24 01:46:44;;;;;;;0.00;0.00;;;;;;;18.15;57.65;99616.09;7363466;19;20047;-63
2022/06/24 01:49:10;;;;;;;0.00;0.00;;;;;;;18.16;57.90;99623.03;7356700;19;20460;-63
2022/06/24 01:51:39;;;;;;;0.00;0.00;;;;;;;18.17;57.44;99619.44;7360883;19;20076;-62
2022/06/24 01:54:04;;;;;;;0.00;0.00;;;;;;;18.17;57.12;99614.16;7362094;19;20034;-59
2022/06/24 01:56:30;;;;;;;0.10;0.10;;;;;;;18.18;56.96;99615.00;7359703;19;20011;-62
2022/06/24 01:58:55;;;;;;;0.10;0.10;;;;;;;18.17;57.32;99611.53;7350086;19;20026;-63
2022/06/24 02:01:21;;;;;;;0.00;0.00;;;;;;;18.16;58.00;99607.19;7362044;19;20395;-63
2022/06/24 02:03:47;;;;;;;0.10;0.10;;;;;;;18.12;58.01;99608.38;7335672;19;20037;-61
2022/06/24 02:06:14;;;;;;;0.00;0.00;;;;;;;18.08;57.66;99605.09;7328117;19;20018;-63
2022/06/24 02:08:41;;;;;;;0.00;0.00;;;;;;;18.05;57.77;99621.19;7331772;19;20026;-63
2022/06/24 02:13:55;;;;;;;0.00;0.00;;;;;;;17.79;57.96;99599.25;7361196;19;20024;-63
2022/06/24 02:16:21;;;;;;;0.00;0.00;;;;;;;17.88;58.27;99622.34;7359083;19;20015;-62
2022/06/24 02:18:47;;;;;;;0.00;0.00;;;;;;;17.86;57.72;99620.78;7364444;19;21223;-62
2022/06/24 02:21:14;;;;;;;0.00;0.00;;;;;;;17.82;57.93;99624.56;7361706;19;20025;-63
2022/06/24 02:23:41;;;;;;;0.00;0.00;;;;;;;17.80;57.92;99618.56;7363215;19;20027;-63
2022/06/24 02:26:07;;;;;;;0.00;0.00;;;;;;;17.75;58.06;99618.88;7362208;19;20115;-63
2022/06/24 02:28:32;;;;;;;0.00;0.00;;;;;;;17.73;58.75;99618.13;7362268;19;20020;-63
2022/06/24 02:30:59;;;;;;;0.00;0.00;;;;;;;17.70;58.88;99620.97;7358567;19;20157;-63
2022/06/24 02:33:26;;;;;;;0.00;0.00;;;;;;;17.66;58.75;99614.22;7361799;19;20030;-62
2022/06/24 02:35:51;;;;;;;0.00;0.00;;;;;;;17.62;58.84;99607.44;7358576;19;20011;-62
2022/06/24 02:38:17;;;;;;;0.00;0.00;;;;;;;17.58;59.38;99603.31;7345686;19;20029;-63
2022/06/24 02:40:46;;;;;;;0.00;0.00;;;;;;;17.55;59.01;99600.91;7360850;19;20027;-63
2022/06/24 02:43:13;;;;;;;0.00;0.00;;;;;;;17.52;59.64;99603.75;7355038;19;20007;-63
2022/06/24 02:45:46;;;;;;;0.00;0.00;;;;;;;17.48;58.71;99591.72;7354565;19;19998;-62
2022/06/24 02:48:13;;;;;;;0.00;0.00;;;;;;;17.47;59.99;99597.94;7359201;19;20030;-63
2022/06/24 02:50:45;;;;;;;0.10;0.10;;;;;;;17.43;59.65;99601.75;7357962;19;20029;-62
2022/06/24 02:53:11;;;;;;;0.00;0.00;;;;;;;17.40;60.18;99596.69;7358023;19;20030;-63
2022/06/24 02:55:37;;;;;;;0.00;0.00;;;;;;;17.38;60.23;99589.69;7359738;19;20604;-63
2022/06/24 02:58:05;;;;;;;0.00;0.00;;;;;;;17.26;60.43;99569.44;7356960;19;20003;-62
2022/06/24 03:00:31;;;;;;;0.00;0.00;;;;;;;17.38;60.63;99588.84;7357312;19;20026;-62
2022/06/24 03:02:56;;;;;;;0.10;0.10;;;;;;;17.27;60.60;99573.75;7365801;19;20010;-62
2022/06/24 03:05:22;;;;;;;0.00;0.00;;;;;;;17.41;60.81;99593.94;7356335;19;20014;-63
2022/06/24 03:07:48;;;;;;;0.00;0.00;;;;;;;17.43;61.00;99593.81;7362828;19;20018;-63
2022/06/24 03:10:13;;;;;;;0.10;0.10;;;;;;;17.44;61.29;99588.47;7364894;19;20078;-61
2022/06/24 03:12:39;;;;;;;0.00;0.00;;;;;;;17.48;61.42;99589.06;7364206;19;20082;-63
2022/06/24 03:15:05;;;;;;;0.00;0.00;;;;;;;17.52;60.96;99598.47;7366402;19;20010;-62
2022/06/24 03:17:30;;;;;;;0.00;0.00;;;;;;;17.54;61.27;99591.31;7366545;19;20776;-63
2022/06/24 03:19:56;;;;;;;0.00;0.00;;;;;;;17.57;61.29;99583.16;7355508;19;20018;-63
2022/06/24 03:22:21;;;;;;;0.00;0.00;;;;;;;17.60;61.51;99588.25;7367376;19;20395;-63
2022/06/24 03:24:46;;;;;;;0.10;0.10;;;;;;;17.62;61.13;99581.03;7363664;19;20010;-62
2022/06/24 03:27:12;;;;;;;0.00;0.00;;;;;;;17.67;61.56;99584.22;7364628;19;20029;-63
2022/06/24 03:29:37;;;;;;;0.10;0.10;;;;;;;17.71;61.36;99590.97;7365230;19;20018;-63
2022/06/24 03:32:03;;;;;;;0.03;0.03;;;;;;;17.74;61.35;99585.53;7365483;19;20006;-63
2022/06/24 03:34:28;;;;;;;0.10;0.10;;;;;;;17.77;61.09;99574.72;7367530;19;20011;-62
2022/06/24 03:36:54;;;;;;;0.10;0.10;;;;;;;17.81;61.39;99560.34;7368958;19;20011;-63
2022/06/24 03:39:19;;;;;;;0.00;0.00;;;;;;;17.83;61.08;99574.28;7363340;19;20037;-62
2022/06/24 03:41:45;;;;;;;0.10;0.10;;;;;;;17.83;61.44;99562.88;7368416;19;20093;-62
2022/06/24 03:44:10;;;;;;;0.00;0.00;;;;;;;17.86;61.48;99568.78;7367191;19;20038;-63
2022/06/24 03:46:36;;;;;;;0.10;0.10;;;;;;;17.88;61.66;99572.16;7367843;19;20039;-63
2022/06/24 03:49:01;;;;;;;0.00;0.00;;;;;;;17.87;61.52;99565.19;7365163;19;20006;-63
2022/06/24 03:51:27;;;;;;;0.00;0.00;;;;;;;17.89;61.66;99558.03;7368056;19;20006;-63
2022/06/24 03:53:52;;;;;;;0.00;0.00;;;;;;;17.92;61.92;99561.38;7368638;19;20810;-62
2022/06/24 03:56:17;;;;;;;0.03;0.03;;;;;;;17.95;61.51;99562.03;7366958;19;20097;-63
2022/06/24 03:58:43;;;;;;;0.05;0.05;;;;;;;17.85;61.28;99540.69;7368179;19;20683;-63
2022/06/24 04:01:08;;;;;;;0.00;0.00;;;;;;;18.01;61.29;99561.56;7367035;19;20014;-60
2022/06/24 04:03:33;;;;;;;0.10;0.10;;;;;;;18.07;61.32;99565.56;7366396;19;20003;-63
2022/06/24 04:05:59;;;;;;;0.00;0.00;;;;;;;18.08;61.38;99554.88;7367653;19;20010;-62
2022/06/24 04:08:24;;;;;;;0.00;0.00;;;;;;;18.14;61.55;99558.88;7367796;19;20077;-62
2022/06/24 04:10:50;;;;;;;0.10;0.10;;;;;;;18.18;61.06;99563.00;7364978;19;20029;-63
2022/06/24 04:13:15;;;;;;;0.10;0.10;;;;;;;18.19;60.88;99563.84;7346922;19;20018;-63
2022/06/24 04:15:46;;;;;;;0.00;0.00;;;;;;;18.26;60.59;99560.66;7332249;19;20019;-62
2022/06/24 04:18:13;;;;;;;0.10;0.10;;;;;;;18.28;60.87;99561.38;7330004;19;20482;-60
2022/06/24 04:20:39;;;;;;;0.10;0.10;;;;;;;18.32;61.24;99548.78;7320331;19;20030;-63
2022/06/24 04:23:05;;;;;;;0.00;0.00;;;;;;;18.33;61.04;99540.75;7354040;19;20421;-63
2022/06/24 04:25:30;;;;;;;0.00;0.00;;;;;;;18.37;60.79;99538.72;7368260;19;20677;-63
2022/06/24 04:27:55;;;;;;;0.00;0.00;;;;;;;18.38;61.46;99538.59;7365878;19;20030;-63
2022/06/24 04:30:21;;;;;;;0.00;0.00;;;;;;;18.41;61.52;99535.75;7364216;19;20042;-63
2022/06/24 04:32:46;;;;;;;0.08;0.08;;;;;;;18.44;61.61;99536.47;7366691;19;20430;-63
2022/06/24 04:35:12;;;;;;;0.05;0.05;;;;;;;18.44;61.67;99536.47;7366392;19;20965;-63
2022/06/24 04:37:38;;;;;;;0.10;0.10;;;;;;;18.46;61.97;99537.22;7365916;19;20013;-62
2022/06/24 04:40:06;;;;;;;0.00;0.00;;;;;;;18.47;61.95;99529.16;7367564;19;20018;-63
2022/06/24 04:42:31;;;;;;;0.00;0.00;;;;;;;18.40;61.95;99520.00;7367655;19;20465;-63
2022/06/24 04:44:57;;;;;;;0.15;0.15;;;;;;;18.44;61.98;99521.44;7365765;19;20011;-62
2022/06/24 04:47:22;;;;;;;0.00;0.00;;;;;;;18.45;61.69;99514.34;7365042;19;20019;-63
2022/06/24 04:49:48;;;;;;;0.10;0.10;;;;;;;18.45;61.90;99524.94;7367172;19;20010;-63
2022/06/24 04:52:15;;;;;;;0.00;0.00;;;;;;;18.42;61.84;99518.94;7362957;19;20010;-62
2022/06/24 04:54:41;;;;;;;0.10;0.10;;;;;;;18.47;61.76;99520.38;7367662;19;20025;-63
2022/06/24 04:57:06;;;;;;;0.10;0.10;;;;;;;18.47;62.02;99515.09;7364998;19;20425;-63
2022/06/24 04:59:32;;;;;;;0.10;0.10;;;;;;;18.48;62.12;99514.13;7366419;19;20471;-62
2022/06/24 05:01:57;;;;;;;0.00;0.00;;;;;;;18.48;61.78;99512.34;7359492;19;20006;-63
2022/06/24 05:04:23;;;;;;;0.10;0.10;;;;;;;18.50;61.92;99509.56;7367227;19;20010;-63
2022/06/24 05:06:49;;;;;;;0.00;0.00;;;;;;;18.50;61.85;99504.28;7363589;19;20081;-61
2022/06/24 05:09:16;;;;;;;0.10;0.10;;;;;;;18.49;61.64;99506.09;7365785;19;20033;-63
2022/06/24 05:11:42;;;;;;;0.10;0.10;;;;;;;18.50;62.00;99504.28;7363925;19;20054;-63
2022/06/24 05:14:07;;;;;;;0.05;0.05;;;;;;;18.50;61.96;99501.63;7365848;19;20021;-63
2022/06/24 05:16:32;;;;;;;0.10;0.10;;;;;;;18.51;62.05;99500.72;7346386;19;20042;-62
2022/06/24 05:18:58;;;;;;;0.10;0.10;;;;;;;18.50;61.54;99494.56;7343260;19;20020;-62
2022/06/24 05:21:26;;;;;;;0.10;0.10;;;;;;;18.51;61.57;99498.06;7331284;19;20013;-62
2022/06/24 05:23:52;;;;;;;0.00;0.00;;;;;;;18.50;61.49;99493.72;7358510;19;20006;-62
2022/06/24 05:26:17;;;;;;;0.00;0.00;;;;;;;18.48;60.78;99496.47;7365129;19;20010;-62
2022/06/24 05:28:43;;;;;;;0.10;0.10;;;;;;;18.49;61.75;99492.03;7365187;19;20014;-62
2022/06/24 05:31:08;;;;;;;0.00;0.00;;;;;;;18.48;61.38;99485.06;7364293;19;20885;-62
2022/06/24 05:33:33;;;;;;;0.00;0.00;;;;;;;18.54;61.39;99485.44;7364781;19;20006;-62
2022/06/24 05:35:59;;;;;;;0.10;0.10;;;;;;;18.50;61.37;99480.50;7362834;19;20007;-62
2022/06/24 05:38:25;;;;;;;0.00;0.00;;;;;;;18.59;60.68;99485.94;7353301;19;20014;-62
2022/06/24 05:40:51;;;;;;;0.00;0.00;;;;;;;18.63;59.36;99486.56;7363079;19;20003;-62
2022/06/24 05:43:20;;;;;;;0.10;0.10;;;;;;;18.60;59.06;99479.72;7362021;19;20017;-61
2022/06/24 05:45:46;;;;;;;0.10;0.10;;;;;;;18.59;58.80;99483.28;7361412;19;20488;-62
2022/06/24 05:48:12;;;;;;;0.10;0.10;;;;;;;18.55;59.32;99487.16;7359274;19;20006;-62
2022/06/24 05:50:38;;;;;;;0.00;0.00;;;;;;;18.51;59.24;99484.84;7362136;19;20017;-62
2022/06/24 05:55:49;;;;;;;0.10;0.10;;;;;;;18.45;60.13;99485.28;7356544;19;20754;-62
2022/06/24 05:58:15;;;;;;;0.10;0.10;;;;;;;18.42;59.76;99484.56;7350536;19;20014;-62
2022/06/24 06:00:40;;;;;;;0.10;0.10;;;;;;;18.39;60.03;99478.66;7364329;19;20013;-62
2022/06/24 06:03:05;;;;;;;0.08;0.08;;;;;;;18.38;59.45;99485.75;7357297;19;20027;-62
2022/06/24 06:05:31;;;;;;;0.10;0.10;;;;;;;18.39;59.40;99471.56;7359806;19;20098;-62
2022/06/24 06:07:56;;;;;;;0.00;0.00;;;;;;;18.40;58.60;99483.84;7361009;19;20014;-61
2022/06/24 06:10:22;;;;;;;0.00;0.00;;;;;;;18.38;58.72;99469.03;7356127;19;20041;-62
2022/06/24 06:12:47;;;;;;;0.00;0.00;;;;;;;18.38;58.72;99469.03;7359488;19;20827;-62
2022/06/24 06:15:12;;;;;;;0.10;0.10;;;;;;;18.40;57.92;99469.78;7354989;19;20015;-61
2022/06/24 06:17:38;;;;;;;0.10;0.10;;;;;;;18.40;58.93;99468.00;7360158;19;20010;-62
2022/06/24 06:20:04;;;;;;;0.10;0.10;;;;;;;18.41;58.67;99461.72;7353551;19;20091;-62
2022/06/24 06:22:29;;;;;;;0.05;0.05;;;;;;;18.47;58.48;99462.22;7356725;19;20006;-62
2022/06/24 06:24:55;;;;;;;0.10;0.10;;;;;;;18.49;58.26;99468.25;7352462;19;20078;-62
2022/06/24 06:27:21;;;;;;;0.10;0.10;;;;;;;18.54;57.93;99463.44;7298858;19;20039;-62
2022/06/24 06:29:47;;;;;;;0.10;0.10;;;;;;;18.57;57.82;99468.50;7347335;19;20106;-63
2022/06/24 06:32:13;;;;;;;0.00;0.00;;;;;;;18.61;58.35;99470.81;7339887;19;20126;-63
2022/06/24 06:34:38;;;;;;;0.00;0.00;;;;;;;18.65;57.98;99471.41;7350513;19;20111;-63
2022/06/24 06:37:04;;;;;;;0.00;0.00;;;;;;;18.70;57.95;99468.44;7364488;19;20042;-62
2022/06/24 06:39:29;;;;;;;0.10;0.10;;;;;;;18.76;57.52;99468.84;7364076;19;20031;-62
2022/06/24 06:41:55;;;;;;;0.00;0.00;;;;;;;18.84;57.70;99466.44;7359340;19;20074;-62
2022/06/24 06:44:20;;;;;;;0.10;0.10;;;;;;;18.91;57.23;99457.09;7361280;19;20019;-62
2022/06/24 06:46:45;;;;;;;0.10;0.10;;;;;;;19.01;57.19;99461.63;7365952;19;20007;-63
2022/06/24 06:49:11;;;;;;;0.00;0.00;;;;;;;19.02;56.31;99458.06;7366153;19;20117;-62
2022/06/24 06:51:37;;;;;;;0.00;0.00;;;;;;;19.11;56.25;99470.56;7367162;19;20003;-62
2022/06/24 06:54:03;;;;;;;0.08;0.08;;;;;;;19.13;56.18;99466.00;7359872;19;20002;-62
2022/06/24 06:56:28;;;;;;;0.10;0.10;;;;;;;19.14;56.03;99462.38;7367365;19;20046;-61
2022/06/24 06:58:54;;;;;;;0.05;0.05;;;;;;;19.13;56.05;99464.19;7365668;19;20070;-62
2022/06/24 07:01:19;;;;;;;0.10;0.10;;;;;;;19.13;56.58;99460.72;7367457;19;20734;-62
2022/06/24 07:03:44;;;;;;;0.00;0.00;;;;;;;19.13;55.40;99442.19;7365490;19;20030;-60
2022/06/24 07:06:10;;;;;;;0.00;0.00;;;;;;;19.15;55.80;99449.03;7363149;19;20376;-62
2022/06/24 07:08:35;;;;;;;0.10;0.10;;;;;;;19.17;55.70;99456.88;7365526;19;20076;-62
2022/06/24 07:11:03;;;;;;;0.10;0.10;;;;;;;19.07;55.29;99446.16;7362215;19;20051;-62
2022/06/24 07:13:28;;;;;;;;;;;;;;;19.21;55.43;99460.97;7367477;19;20729;-61
2022/06/24 07:15:54;;;;;;;0.00;0.00;;;;;;;19.16;55.45;99466.63;7367177;19;19937;-62
2022/06/24 07:18:19;;;;;;;0.10;0.10;;;;;;;19.08;55.54;99441.69;7367770;19;20363;-61
2022/06/24 07:20:45;;;;;;;0.00;0.00;;;;;;;19.21;55.74;99458.31;7361348;19;20642;-62
2022/06/24 07:23:11;;;;;;;0.10;0.10;;;;;;;19.22;55.79;99453.88;7366940;19;20350;-62
2022/06/24 07:25:36;;;;;;;0.00;0.00;;;;;;;19.26;55.65;99455.28;7364183;19;20018;-61
2022/06/24 07:28:02;;;;;;;0.10;0.10;;;;;;;19.27;55.70;99451.69;7365703;19;20003;-62
2022/06/24 07:30:29;;;;;;;0.10;0.10;;;;;;;19.29;56.12;99449.75;7366834;19;20015;-62
2022/06/24 07:32:55;;;;;;;0.10;0.10;;;;;;;19.32;55.87;99450.38;7333876;19;20006;-63
2022/06/24 07:35:20;;;;;;;0.10;0.10;;;;;;;19.34;55.90;99443.13;7365284;19;20069;-62
2022/06/24 07:37:46;;;;;;;0.00;0.00;;;;;;;19.35;55.87;99442.16;7341756;19;20565;-62
2022/06/24 07:40:11;;;;;;;0.10;0.10;;;;;;;19.25;56.12;99421.84;7338661;19;20010;-61
2022/06/24 07:42:37;;;;;;;0.10;0.10;;;;;;;19.37;55.83;99432.31;7352871;19;20010;-62
2022/06/24 07:45:03;;;;;;;0.10;0.10;;;;;;;19.40;56.24;99436.50;7363434;19;20014;-63
2022/06/24 07:47:28;;;;;;;0.10;0.10;;;;;;;19.42;55.86;99430.16;7356460;19;20723;-62
2022/06/24 07:49:54;;;;;;;0.00;0.00;;;;;;;19.49;55.47;99434.94;7361505;19;20010;-62
2022/06/24 07:52:20;;;;;;;0.10;0.10;;;;;;;19.40;55.70;99405.59;7356191;19;20018;-61
2022/06/24 07:54:45;;;;;;;0.05;0.05;;;;;;;19.57;56.21;99421.94;7361884;19;20023;-62
2022/06/24 07:57:10;;;;;;;0.10;0.10;;;;;;;19.62;55.92;99417.16;7362073;19;20057;-62
2022/06/24 07:59:37;;;;;;;0.10;0.10;;;;;;;19.73;56.16;99411.81;7356152;19;20014;-61
2022/06/24 08:02:06;;;;;;;0.10;0.10;;;;;;;19.84;55.36;99414.44;7363279;19;20006;-62
2022/06/24 08:04:32;;;;;;;0.10;0.10;;;;;;;19.91;54.99;99399.72;7364894;19;20014;-62
2022/06/24 08:06:58;;;;;;;0.10;0.10;;;;;;;20.03;55.25;99402.34;7361732;19;20086;-61
2022/06/24 08:09:30;;;;;;;0.10;0.10;;;;;;;20.12;55.32;99396.25;7365178;19;20017;-62
2022/06/24 08:11:56;;;;;;;0.10;0.10;;;;;;;20.25;54.65;99401.38;7352844;19;20062;-63
2022/06/24 08:14:21;;;;;;;0.00;0.00;;;;;;;20.34;54.68;99390.84;7365241;19;20074;-63
2022/06/24 08:16:46;;;;;;;0.10;0.10;;;;;;;20.46;54.66;99384.53;7362984;19;20015;-63
2022/06/24 08:19:12;;;;;;;0.10;0.10;;;;;;;20.47;54.00;99367.66;7365099;19;20013;-63
2022/06/24 08:21:38;;;;;;;0.10;0.10;;;;;;;20.68;53.79;99382.69;7363398;19;20025;-62
2022/06/24 08:24:04;;;;;;;0.00;0.00;;;;;;;20.79;53.94;99372.03;7363301;19;20010;-63
2022/06/24 08:26:30;;;;;;;0.10;0.10;;;;;;;20.85;52.53;99366.19;7364433;19;20013;-62
2022/06/24 08:28:55;;;;;;;0.00;0.00;;;;;;;21.02;52.03;99363.88;7363162;19;20401;-63
2022/06/24 08:31:21;;;;;;;0.03;0.03;;;;;;;21.10;52.32;99366.72;7363474;19;20894;-63
2022/06/24 08:33:46;;;;;;;0.10;0.10;;;;;;;21.19;52.18;99357.94;7364462;19;20018;-61
2022/06/24 08:36:12;;;;;;;0.10;0.10;;;;;;;21.27;52.53;99357.25;7363962;19;20018;-63
2022/06/24 08:38:38;;;;;;;0.10;0.10;;;;;;;21.31;52.90;99359.53;7367144;19;20070;-62
2022/06/24 08:41:03;;;;;;;0.10;0.10;;;;;;;21.36;52.67;99352.00;7367081;19;20018;-61
2022/06/24 08:43:34;;;;;;;0.10;0.10;;;;;;;21.47;53.14;99349.22;7365257;19;20029;-62
2022/06/24 08:46:01;;;;;;;0.10;0.10;;;;;;;21.54;53.72;99335.38;7364812;19;20007;-63
2022/06/24 08:48:28;;;;;;;0.00;0.00;;;;;;;21.72;52.59;99344.34;7366936;19;20063;-62
2022/06/24 08:50:54;;;;;;;0.00;0.00;;;;;;;21.90;50.93;99341.84;7366814;19;20021;-63
2022/06/24 08:53:21;;;;;;;0.10;0.10;;;;;;;22.06;50.54;99338.63;7364714;19;20074;-63
2022/06/24 08:55:50;;;;;;;0.00;0.00;;;;;;;22.15;49.97;99335.13;7366533;19;20023;-63
2022/06/24 08:58:17;;;;;;;0.08;0.08;;;;;;;22.15;49.18;99340.44;7363865;19;20521;-63
2022/06/24 09:00:43;;;;;;;0.00;0.00;;;;;;;22.10;49.84;99326.72;7365591;19;20034;-62
2022/06/24 09:03:08;;;;;;;0.10;0.10;;;;;;;22.12;50.26;99325.63;7362105;19;20049;-63
2022/06/24 09:05:34;;;;;;;0.10;0.10;;;;;;;22.18;50.41;99330.38;7364145;19;20326;-62
2022/06/24 09:08:09;;;;;;;0.10;0.10;;;;;;;22.30;50.57;99330.22;7366838;19;20446;-63
2022/06/24 09:10:37;;;;;;;0.10;0.10;;;;;;;22.33;50.55;99330.78;7365551;19;20010;-63
2022/06/24 09:13:03;;;;;;;0.10;0.10;;;;;;;22.37;50.96;99337.50;7364100;19;20014;-62
2022/06/24 09:15:29;;;;;;;0.10;0.10;;;;;;;22.43;50.59;99336.06;7365452;19;20430;-63
2022/06/24 09:17:55;;;;;;;0.10;0.10;;;;;;;22.47;51.19;99322.34;7365525;19;20018;-63
2022/06/24 09:20:28;;;;;;;0.10;0.10;;;;;;;22.58;51.19;99325.81;7364685;19;20460;-63
2022/06/24 09:23:08;;;;;;;0.10;0.10;;;;;;;22.63;50.93;99310.25;7365850;19;20009;-63
2022/06/24 09:25:42;;;;;;;0.10;0.10;;;;;;;22.58;50.92;99302.69;7364366;19;20033;-63
2022/06/24 09:28:08;;;;;;;0.10;0.10;;;;;;;22.68;50.92;99319.47;7366186;19;20002;-63
2022/06/24 09:30:36;;;;;;;0.10;0.10;;;;;;;22.74;51.24;99315.38;7364946;19;23979;-63
2022/06/24 09:33:01;;;;;;;0.10;0.10;;;;;;;22.75;50.59;99315.22;7363954;19;20007;-63
2022/06/24 09:35:27;;;;;;;0.10;0.10;;;;;;;22.80;51.32;99306.81;7365201;19;20010;-63
2022/06/24 09:37:52;;;;;;;0.10;0.10;;;;;;;22.87;50.78;99297.25;7364690;19;20607;-63
2022/06/24 09:40:30;;;;;;;0.10;0.10;;;;;;;23.04;49.68;99304.47;7363781;19;20007;-63
2022/06/24 09:42:57;;;;;;;0.00;0.00;;;;;;;23.11;49.87;99301.22;7359336;19;20010;-63
2022/06/24 09:45:25;;;;;;;0.08;0.08;;;;;;;23.13;49.90;99296.59;7360597;19;20094;-62
2022/06/24 09:47:51;;;;;;;0.10;0.10;;;;;;;23.15;49.89;99305.25;7361451;19;20023;-63
2022/06/24 09:50:19;;;;;;;0.10;0.10;;;;;;;23.22;49.97;99296.53;7362549;19;20011;-63
2022/06/24 09:52:45;;;;;;;0.10;0.10;;;;;;;23.35;49.52;99316.63;7361996;19;20638;-63
2022/06/24 09:55:11;;;;;;;0.05;0.05;;;;;;;23.48;48.94;99296.63;7354341;19;20011;-61
2022/06/24 09:57:38;;;;;;;0.05;0.05;;;;;;;23.55;48.20;99291.53;7363248;19;20023;-61
2022/06/24 10:02:50;;;;;;;0.00;0.00;;;;;;;23.73;46.99;99299.56;7361308;19;20022;-63
2022/06/24 10:05:18;;;;;;;0.10;0.10;;;;;;;23.73;47.50;99294.25;7361976;19;20568;-63
2022/06/24 10:07:46;;;;;;;0.10;0.10;;;;;;;23.66;47.21;99287.81;7362590;19;20011;-63
2022/06/24 10:10:14;;;;;;;0.10;0.10;;;;;;;23.60;47.82;99288.41;7366371;19;20583;-62
2022/06/24 10:12:46;;;;;;;0.10;0.10;;;;;;;23.59;47.99;99282.25;7370483;19;20018;-63
2022/06/24 10:15:14;;;;;;;0.10;0.10;;;;;;;23.59;47.79;99289.41;7368696;19;20020;-63
2022/06/24 10:17:42;;;;;;;0.10;0.10;;;;;;;23.56;47.68;99277.22;7367516;19;20010;-61
2022/06/24 10:20:11;;;;;;;0.10;0.10;;;;;;;23.73;48.85;99284.41;7370710;19;20002;-63
2022/06/24 10:22:50;;;;;;;0.10;0.10;;;;;;;24.00;48.67;99272.78;7367907;19;20090;-62
2022/06/24 10:25:18;;;;;;;0.10;0.10;;;;;;;24.17;46.87;99255.06;7368375;19;20957;-63
2022/06/24 10:27:58;;;;;;;0.10;0.10;;;;;;;24.55;47.02;99272.50;7368349;19;20388;-62
2022/06/24 10:30:45;;;;;;;0.10;0.10;;;;;;;24.82;46.74;99254.56;7370301;19;20011;-63
2022/06/24 10:33:22;;;;;;;0.10;0.10;;;;;;;25.01;46.13;99258.81;7367721;19;20332;-63
2022/06/24 10:36:28;;;;;;;0.10;0.10;;;;;;;25.20;45.91;99271.09;7368349;19;20007;-62
2022/06/24 10:39:06;;;;;;;0.10;0.10;;;;;;;25.14;43.70;99263.72;7257334;19;2004192;-63
2022/06/24 10:41:42;;;;;;;0.10;0.10;;;;;;;25.16;44.00;99251.06;7359217;19;20034;-62
2022/06/24 10:44:32;;;;;;;0.10;0.10;;;;;;;25.12;44.95;99260.38;7352674;19;20446;-63
2022/06/24 10:47:36;;;;;;;0.10;0.10;;;;;;;24.97;44.42;99258.31;7353644;19;20006;-63
2022/06/24 10:50:04;;;;;;;0.10;0.10;;;;;;;24.76;43.63;99252.56;7242709;19;2005104;-63
2022/06/24 10:52:39;;;;;;;0.10;0.10;;;;;;;24.67;44.43;99250.84;7354572;19;20101;-63
2022/06/24 11:05:42;;;;;;;0.10;0.10;;;;;;;24.30;44.40;99254.66;7400711;19;19983;-63
2022/06/24 11:08:13;;;;;;;0.10;0.10;;;;;;;24.11;44.09;99252.19;7372415;19;20010;-62
2022/06/24 11:10:39;;;;;;;0.10;0.10;;;;;;;23.91;44.31;99255.03;7364080;19;20010;-62
2022/06/24 11:13:05;;;;;;;0.00;0.00;;;;;;;23.79;43.89;99249.13;7364868;19;20477;-63
2022/06/24 11:15:34;;;;;;;0.10;0.10;;;;;;;23.68;44.57;99243.22;7365838;19;20417;-62
2022/06/24 11:18:14;;;;;;;0.10;0.10;;;;;;;23.45;45.05;99232.16;7365939;19;20030;-62
2022/06/24 11:20:46;;;;;;;0.10;0.10;;;;;;;23.38;44.63;99250.59;7363793;19;20585;-62
2022/06/24 11:23:14;;;;;;;0.10;0.10;;;;;;;23.26;44.89;99244.63;7366091;19;20561;-63
2022/06/24 11:25:40;;;;;;;;;;;;;;;23.19;45.28;99232.06;7365471;19;20045;-62
2022/06/24 11:28:35;;;;;;;0.10;0.10;;;;;;;23.10;45.63;99228.47;7364388;19;19930;-62
2022/06/24 11:31:13;;;;;;;0.10;0.10;;;;;;;23.07;46.46;99234.13;7260853;19;2004550;-62
2022/06/24 11:33:39;;;;;;;0.10;0.10;;;;;;;23.00;47.35;99223.22;7368449;19;20573;-62
2022/06/24 11:36:05;;;;;;;0.10;0.10;;;;;;;23.00;47.75;99236.53;7364649;19;22298;-62
2022/06/24 11:38:36;;;;;;;0.10;0.10;;;;;;;23.00;47.65;99223.22;7365146;19;20708;-62
2022/06/24 11:41:01;;;;;;;0.10;0.10;;;;;;;22.98;47.69;99225.22;7368799;19;20021;-62
2022/06/24 11:43:27;;;;;;;0.10;0.10;;;;;;;22.81;48.20;99210.03;7366458;19;20537;-62
2022/06/24 11:45:57;;;;;;;0.10;0.10;;;;;;;22.84;48.18;99216.84;7365973;19;20070;-62
2022/06/24 11:48:24;;;;;;;0.10;0.10;;;;;;;22.76;48.29;99225.59;7366521;19;20492;-62
2022/06/24 11:50:51;;;;;;;0.00;0.00;;;;;;;22.69;48.30;99216.53;7368498;19;20054;-61
2022/06/24 11:53:23;;;;;;;0.00;0.00;;;;;;;22.62;47.13;99212.78;7365887;19;20010;-61